createdAt,value
2022-12-23T00:02:22.418Z,8.13
2022-12-23T00:04:49.487Z,11.53
2022-12-23T00:07:16.547Z,10.07
2022-12-23T00:09:43.684Z,13.98
2022-12-23T00:12:29.369Z,12.75
2022-12-23T00:15:05.510Z,9.03
2022-12-23T00:17:33.853Z,8.73
2022-12-23T00:20:01.785Z,7.50
2022-12-23T00:22:47.682Z,7.15
2022-12-23T00:25:14.800Z,6.15
2022-12-23T00:27:42.064Z,8.40
2022-12-23T00:30:10.789Z,5.28
2022-12-23T00:32:37.843Z,5.97
2022-12-23T00:35:05.285Z,5.80
2022-12-23T00:37:32.358Z,6.28
2022-12-23T00:40:17.878Z,6.57
2022-12-23T00:42:53.972Z,4.57
2022-12-23T00:45:21.994Z,5.35
2022-12-23T00:48:07.617Z,2.92
2022-12-23T00:50:37.956Z,4.30
2022-12-23T00:53:06.119Z,3.38
2022-12-23T00:55:33.251Z,4.80
2022-12-23T00:58:00.316Z,4.28
2022-12-23T01:00:46.001Z,2.72
2022-12-23T01:03:33.071Z,4.32
2022-12-23T01:06:01.270Z,2.72
2022-12-23T01:08:29.134Z,2.30
2022-12-23T01:10:56.277Z,3.97
2022-12-23T01:13:23.476Z,3.50
2022-12-23T01:15:50.561Z,4.25
2022-12-23T01:18:17.676Z,3.95
2022-12-23T01:20:44.807Z,3.67
2022-12-23T01:23:11.909Z,9.83
2022-12-23T01:25:38.993Z,4.30
2022-12-23T01:28:06.073Z,7.88
2022-12-23T01:30:33.165Z,3.60
2022-12-23T01:33:00.199Z,6.50
2022-12-23T01:35:27.257Z,6.05
2022-12-23T01:37:54.299Z,5.47
2022-12-23T01:40:21.375Z,5.85
2022-12-23T01:42:48.421Z,5.40
2022-12-23T01:45:30.384Z,5.45
2022-12-23T01:48:22.814Z,2.65
2022-12-23T01:51:02.009Z,3.85
2022-12-23T01:53:33.130Z,4.63
2022-12-23T01:56:14.915Z,4.60
2022-12-23T01:58:59.062Z,3.65
2022-12-23T02:01:45.544Z,3.10
2022-12-23T02:04:17.835Z,4.00
2022-12-23T02:07:06.649Z,4.65
2022-12-23T02:09:39.397Z,5.25
2022-12-23T02:12:24.826Z,8.85
2022-12-23T02:15:21.306Z,6.80
2022-12-23T02:18:18.710Z,6.70
2022-12-23T02:21:30.182Z,9.95
2022-12-23T02:24:29.696Z,8.27
2022-12-23T02:27:16.926Z,6.93
2022-12-23T02:30:08.128Z,7.43
2022-12-23T02:32:59.891Z,13.18
2022-12-23T02:36:04.108Z,5.45
2022-12-23T02:38:56.409Z,6.22
2022-12-23T02:41:33.662Z,6.57
2022-12-23T02:44:23.905Z,8.13
2022-12-23T02:46:57.048Z,6.10
2022-12-23T02:49:38.552Z,10.07
2022-12-23T02:52:12.804Z,3.43
2022-12-23T02:54:48.821Z,4.70
2022-12-23T02:57:19.620Z,3.53
2022-12-23T02:59:51.150Z,4.90
2022-12-23T03:02:19.349Z,4.10
2022-12-23T03:04:46.555Z,4.57
2022-12-23T03:07:21.165Z,3.13
2022-12-23T03:10:03.674Z,6.10
2022-12-23T03:13:01.262Z,5.00
2022-12-23T03:15:51.652Z,4.45
2022-12-23T03:18:31.710Z,4.17
2022-12-23T03:21:22.297Z,3.57
2022-12-23T03:24:14.522Z,5.20
2022-12-23T03:27:29.625Z,4.05
2022-12-23T03:29:59.721Z,2.85
2022-12-23T03:32:31.373Z,3.43
2022-12-23T03:35:01.198Z,6.18
2022-12-23T03:37:32.639Z,3.72
2022-12-23T03:40:03.362Z,2.88
2022-12-23T03:42:42.319Z,4.90
2022-12-23T03:45:38.068Z,2.05
2022-12-23T03:48:16.227Z,3.70
2022-12-23T03:50:45.192Z,5.28
2022-12-23T03:53:28.559Z,4.03
2022-12-23T03:56:00.476Z,4.85
2022-12-23T03:58:39.148Z,2.65
2022-12-23T04:01:38.474Z,5.05
2022-12-23T04:04:29.531Z,4.35
2022-12-23T04:07:04.757Z,3.65
2022-12-23T04:09:32.102Z,6.32
2022-12-23T04:11:59.271Z,7.47
2022-12-23T04:14:26.362Z,12.35
2022-12-23T04:16:55.954Z,7.70
2022-12-23T04:19:23.098Z,7.20
2022-12-23T04:21:50.323Z,5.20
2022-12-23T04:24:17.376Z,6.20
2022-12-23T04:26:44.448Z,7.82
2022-12-23T04:29:11.519Z,5.45
2022-12-23T04:31:38.635Z,4.22
2022-12-23T04:34:05.713Z,3.50
2022-12-23T04:36:33.245Z,4.57
2022-12-23T04:39:00.342Z,7.47
2022-12-23T04:41:27.428Z,3.00
2022-12-23T04:43:54.520Z,3.05
2022-12-23T04:46:21.645Z,3.28
2022-12-23T04:48:48.730Z,3.97
2022-12-23T04:51:15.801Z,3.95
2022-12-23T04:53:42.872Z,4.32
2022-12-23T04:56:10.032Z,3.03
2022-12-23T04:58:37.089Z,1.80
2022-12-23T05:01:07.028Z,4.22
2022-12-23T05:03:34.181Z,2.60
2022-12-23T05:06:01.794Z,2.95
2022-12-23T05:08:28.895Z,4.05
2022-12-23T05:10:56.440Z,1.85
2022-12-23T05:13:24.025Z,1.90
2022-12-23T05:15:52.941Z,2.00
2022-12-23T05:18:21.648Z,2.72
2022-12-23T05:20:49.454Z,1.67
2022-12-23T05:23:16.583Z,1.95
2022-12-23T05:25:43.669Z,1.87
2022-12-23T05:28:10.763Z,5.40
2022-12-23T05:30:37.852Z,3.03
2022-12-23T05:33:05.017Z,3.30
2022-12-23T05:35:32.128Z,4.28
2022-12-23T05:37:59.206Z,3.17
2022-12-23T05:40:30.398Z,2.50
2022-12-23T05:42:59.344Z,4.60
2022-12-23T05:45:26.501Z,2.03
2022-12-23T05:47:53.612Z,2.72
2022-12-23T05:50:20.667Z,3.92
2022-12-23T05:52:47.753Z,4.22
2022-12-23T05:55:14.827Z,4.35
2022-12-23T05:57:41.900Z,5.70
2022-12-23T06:00:09.670Z,6.20
2022-12-23T06:02:36.835Z,5.78
2022-12-23T06:05:04.255Z,10.13
2022-12-23T06:07:31.331Z,8.50
2022-12-23T06:09:58.385Z,8.95
2022-12-23T06:12:25.507Z,8.45
2022-12-23T06:14:52.564Z,7.78
2022-12-23T06:17:19.658Z,7.97
2022-12-23T06:19:47.377Z,7.25
2022-12-23T06:22:15.188Z,5.75
2022-12-23T06:24:42.231Z,8.50
2022-12-23T06:27:09.320Z,10.13
2022-12-23T06:29:36.584Z,7.57
2022-12-23T06:32:03.967Z,7.07
2022-12-23T06:34:31.470Z,6.60
2022-12-23T06:36:58.715Z,6.82
2022-12-23T06:39:26.385Z,7.43
2022-12-23T06:41:53.689Z,5.70
2022-12-23T06:44:20.884Z,5.30
2022-12-23T06:46:47.951Z,6.47
2022-12-23T06:49:15.004Z,5.93
2022-12-23T06:51:42.194Z,5.20
2022-12-23T06:54:11.756Z,3.87
2022-12-23T06:56:39.580Z,6.22
2022-12-23T06:59:06.717Z,8.00
2022-12-23T07:01:34.107Z,7.80
2022-12-23T07:04:01.947Z,7.28
2022-12-23T07:06:29.248Z,6.07
2022-12-23T07:08:56.336Z,8.90
2022-12-23T07:11:23.396Z,6.33
2022-12-23T07:13:50.565Z,7.00
2022-12-23T07:16:17.721Z,10.63
2022-12-23T07:18:44.964Z,11.60
2022-12-23T07:21:21.344Z,15.68
2022-12-23T07:23:54.376Z,12.82
2022-12-23T07:26:21.435Z,8.20
2022-12-23T07:28:48.852Z,10.53
2022-12-23T07:31:16.508Z,9.40
2022-12-23T07:33:43.793Z,10.50
2022-12-23T07:36:10.917Z,13.70
2022-12-23T07:38:38.140Z,11.40
2022-12-23T07:41:05.348Z,9.60
2022-12-23T07:43:32.630Z,11.02
2022-12-23T07:46:05.270Z,9.13
2022-12-23T07:48:32.373Z,6.50
2022-12-23T07:51:03.468Z,6.97
2022-12-23T07:53:30.646Z,9.65
2022-12-23T07:55:58.683Z,10.63
2022-12-23T07:58:25.728Z,6.40
2022-12-23T08:01:03.205Z,7.97
2022-12-23T08:03:30.530Z,8.20
2022-12-23T08:06:12.224Z,7.97
2022-12-23T08:08:40.496Z,8.00
2022-12-23T08:11:10.414Z,6.65
2022-12-23T08:13:41.002Z,7.53
2022-12-23T08:16:08.981Z,5.10
2022-12-23T08:18:38.233Z,6.65
2022-12-23T08:21:18.896Z,4.40
2022-12-23T08:23:47.358Z,5.20
2022-12-23T08:26:19.684Z,5.50
2022-12-23T08:28:48.131Z,4.13
2022-12-23T08:31:24.231Z,3.30
2022-12-23T08:33:53.878Z,3.97
2022-12-23T08:36:28.718Z,3.63
2022-12-23T08:38:58.405Z,4.20
2022-12-23T08:41:29.398Z,3.15
2022-12-23T08:43:56.641Z,3.40
2022-12-23T08:46:24.598Z,4.78
2022-12-23T08:48:52.574Z,2.63
2022-12-23T08:51:24.265Z,4.18
2022-12-23T08:53:59.538Z,3.92
2022-12-23T08:56:30.436Z,5.13
2022-12-23T08:58:57.961Z,4.53
2022-12-23T09:01:28.654Z,6.05
2022-12-23T09:03:56.197Z,2.40
2022-12-23T09:06:29.631Z,9.70
2022-12-23T09:08:58.336Z,6.70
2022-12-23T09:11:27.812Z,8.73
2022-12-23T09:13:55.942Z,7.43
2022-12-23T09:16:23.518Z,10.77
2022-12-23T09:18:50.908Z,9.65
2022-12-23T09:21:20.781Z,7.03
2022-12-23T09:23:48.381Z,10.80
2022-12-23T09:26:24.037Z,7.97
2022-12-23T09:28:51.871Z,11.85
2022-12-23T09:31:20.014Z,6.57
2022-12-23T09:33:49.226Z,6.47
2022-12-23T09:36:16.723Z,7.53
2022-12-23T09:38:43.814Z,20.57
2022-12-23T09:41:31.350Z,8.15
2022-12-23T09:44:14.576Z,5.22
2022-12-23T09:47:02.245Z,3.40
2022-12-23T09:49:29.443Z,6.22
2022-12-23T09:52:05.541Z,21.92
2022-12-23T09:54:42.217Z,12.63
2022-12-23T09:57:31.709Z,6.85
2022-12-23T10:00:14.668Z,24.73
2022-12-23T10:03:00.648Z,40.92
2022-12-23T10:05:56.630Z,24.57
2022-12-23T10:08:32.900Z,15.82
2022-12-23T10:11:02.069Z,19.53
2022-12-23T10:13:43.506Z,19.25
2022-12-23T10:16:29.880Z,10.07
2022-12-23T10:19:20.717Z,6.77
2022-12-23T10:22:30.828Z,3.15
2022-12-23T10:25:00.402Z,19.70
2022-12-23T10:27:32.371Z,24.10
2022-12-23T10:30:34.381Z,12.15
2022-12-23T10:33:04.338Z,9.15
2022-12-23T10:35:50.186Z,2.20
2022-12-23T10:39:12.049Z,4.32
2022-12-23T10:42:11.712Z,4.35
2022-12-23T10:44:47.769Z,4.40
2022-12-23T10:47:41.422Z,4.75
2022-12-23T10:50:32.513Z,5.47
2022-12-23T10:53:03.268Z,4.53
2022-12-23T10:55:35.607Z,3.88
2022-12-23T10:58:09.032Z,6.40
2022-12-23T11:00:40.056Z,4.95
2022-12-23T11:03:21.657Z,5.22
2022-12-23T11:05:51.610Z,6.93
2022-12-23T11:08:24.115Z,6.95
2022-12-23T11:10:51.291Z,2.33
2022-12-23T11:13:50.991Z,4.22
2022-12-23T11:16:27.042Z,6.80
2022-12-23T11:19:02.056Z,8.50
2022-12-23T11:21:33.321Z,5.18
2022-12-23T11:24:20.851Z,9.38
2022-12-23T11:26:50.333Z,12.38
2022-12-23T11:29:39.915Z,5.90
2022-12-23T11:32:27.957Z,5.60
2022-12-23T11:34:56.239Z,5.50
2022-12-23T11:37:36.794Z,5.32
2022-12-23T11:40:25.566Z,9.27
2022-12-23T11:42:58.974Z,83.13
2022-12-23T11:45:29.995Z,54.78
2022-12-23T11:47:57.157Z,39.63
2022-12-23T11:50:38.625Z,47.17
2022-12-23T11:53:36.564Z,37.72
2022-12-23T11:56:13.690Z,40.90
2022-12-23T11:58:50.955Z,59.08
2022-12-23T12:01:21.208Z,46.90
2022-12-23T12:03:56.505Z,50.08
2022-12-23T12:06:23.854Z,36.13
2022-12-23T12:08:53.662Z,29.73
2022-12-23T12:11:26.927Z,30.35
2022-12-23T12:14:02.458Z,61.57
2022-12-23T12:16:53.600Z,44.03
2022-12-23T12:19:36.590Z,40.42
2022-12-23T12:22:12.010Z,37.70
2022-12-23T12:24:52.642Z,43.33
2022-12-23T12:27:24.914Z,39.67
2022-12-23T12:30:01.058Z,33.42
2022-12-23T12:32:38.826Z,29.67
2022-12-23T12:35:14.415Z,27.73
2022-12-23T12:37:49.243Z,27.95
2022-12-23T12:40:44.401Z,30.90
2022-12-23T12:43:44.646Z,24.02
2022-12-23T12:46:30.302Z,22.10
2022-12-23T12:49:22.563Z,26.43
2022-12-23T12:51:58.170Z,21.20
2022-12-23T12:54:34.682Z,21.00
2022-12-23T12:57:02.345Z,16.70
2022-12-23T12:59:38.546Z,24.63
2022-12-23T13:02:26.788Z,18.77
2022-12-23T13:04:56.914Z,16.65
2022-12-23T13:07:34.678Z,14.75
2022-12-23T13:10:36.710Z,13.35
2022-12-23T13:13:09.514Z,14.15
2022-12-23T13:15:42.579Z,14.10
2022-12-23T13:18:30.902Z,19.03
2022-12-23T13:21:03.040Z,27.33
2022-12-23T13:23:43.938Z,44.30
2022-12-23T13:26:31.895Z,32.95
2022-12-23T13:29:38.420Z,44.17
2022-12-23T13:32:32.752Z,46.47
2022-12-23T13:35:34.402Z,44.27
2022-12-23T13:38:11.394Z,52.35
2022-12-23T13:41:02.528Z,51.22
2022-12-23T13:43:47.323Z,56.90
2022-12-23T13:46:35.364Z,47.80
2022-12-23T13:49:05.547Z,52.28
2022-12-23T13:51:51.232Z,51.67
2022-12-23T13:54:32.491Z,52.78
2022-12-23T13:57:30.298Z,45.00
2022-12-23T14:00:21.916Z,54.65
2022-12-23T14:03:05.436Z,49.25
2022-12-23T14:05:45.244Z,56.92
2022-12-23T14:08:18.398Z,40.93
2022-12-23T14:10:58.471Z,52.72
2022-12-23T14:13:29.984Z,43.03
2022-12-23T14:16:09.099Z,49.42
2022-12-23T14:19:04.125Z,38.92
2022-12-23T14:21:56.252Z,40.67
2022-12-23T14:24:53.524Z,47.22
2022-12-23T14:27:41.149Z,40.03
2022-12-23T14:30:27.341Z,40.03
2022-12-23T14:32:59.029Z,38.45
2022-12-23T14:35:36.927Z,40.33
2022-12-23T14:38:15.158Z,43.58
2022-12-23T14:40:42.226Z,48.53
2022-12-23T14:43:32.962Z,38.63
2022-12-23T14:46:05.671Z,35.37
2022-12-23T14:48:36.099Z,31.47
2022-12-23T14:51:10.170Z,31.13
2022-12-23T14:53:57.052Z,34.30
2022-12-23T14:56:39.667Z,30.07
2022-12-23T14:59:12.706Z,24.95
2022-12-23T15:01:51.170Z,25.17
2022-12-23T15:04:26.058Z,22.45
2022-12-23T15:06:59.027Z,22.38
2022-12-23T15:09:32.615Z,20.75
2022-12-23T15:12:04.737Z,18.75
2022-12-23T15:14:40.771Z,13.40
2022-12-23T15:17:17.458Z,14.55
2022-12-23T15:19:47.379Z,16.47
2022-12-23T15:22:22.681Z,11.63
2022-12-23T15:24:52.614Z,10.77
2022-12-23T15:27:29.843Z,14.13
2022-12-23T15:29:58.097Z,10.95
2022-12-23T15:32:26.515Z,15.25
2022-12-23T15:35:04.928Z,8.38
2022-12-23T15:37:32.689Z,13.52
2022-12-23T15:40:11.514Z,9.73
2022-12-23T15:42:47.627Z,9.32
2022-12-23T15:45:23.892Z,10.70
2022-12-23T15:47:51.175Z,9.40
2022-12-23T15:50:19.298Z,9.75
2022-12-23T15:52:48.583Z,7.28
2022-12-23T15:55:24.365Z,6.93
2022-12-23T15:57:52.414Z,5.35
2022-12-23T16:00:40.424Z,5.20
2022-12-23T16:03:24.794Z,6.40
2022-12-23T16:05:52.239Z,5.53
2022-12-23T16:08:30.276Z,4.43
2022-12-23T16:11:04.083Z,6.57
2022-12-23T16:13:32.141Z,6.03
2022-12-23T16:16:19.641Z,3.38
2022-12-23T16:18:47.764Z,3.33
2022-12-23T16:21:15.604Z,5.75
2022-12-23T16:23:50.427Z,4.65
2022-12-23T16:26:17.636Z,4.03
2022-12-23T16:28:47.901Z,2.58
2022-12-23T16:31:19.403Z,2.50
2022-12-23T16:33:51.159Z,2.83
2022-12-23T16:36:27.309Z,2.03
2022-12-23T16:39:08.744Z,3.00
2022-12-23T16:41:36.461Z,5.95
2022-12-23T16:44:04.188Z,2.88
2022-12-23T16:46:37.688Z,2.35
2022-12-23T16:49:08.321Z,3.45
2022-12-23T16:51:37.793Z,4.35
2022-12-23T16:54:05.092Z,5.38
2022-12-23T16:56:36.835Z,5.43
2022-12-23T16:59:04.614Z,2.88
2022-12-23T17:01:40.439Z,4.82
2022-12-23T17:04:08.032Z,3.08
2022-12-23T17:06:36.076Z,3.25
2022-12-23T17:09:05.087Z,5.00
2022-12-23T17:11:47.595Z,5.38
2022-12-23T17:14:18.434Z,4.22
2022-12-23T17:16:46.568Z,2.30
2022-12-23T17:19:14.209Z,12.23
2022-12-23T17:21:43.752Z,16.00
2022-12-23T17:24:25.523Z,12.65
2022-12-23T17:26:56.562Z,8.98
2022-12-23T17:29:23.803Z,10.88
2022-12-23T17:31:51.514Z,7.88
2022-12-23T17:34:23.500Z,10.48
2022-12-23T17:36:51.502Z,10.77
2022-12-23T17:39:19.676Z,7.13
2022-12-23T17:41:47.172Z,6.35
2022-12-23T17:44:17.286Z,6.73
2022-12-23T17:46:45.839Z,6.20
2022-12-23T17:49:13.076Z,6.63
2022-12-23T17:51:41.038Z,8.20
2022-12-23T17:54:20.161Z,5.93
2022-12-23T17:56:47.216Z,5.77
2022-12-23T17:59:14.255Z,4.87
2022-12-23T18:01:41.506Z,5.87
2022-12-23T18:04:08.620Z,4.70
2022-12-23T18:06:35.674Z,4.75
2022-12-23T18:09:02.764Z,4.22
2022-12-23T18:11:44.775Z,5.35
2022-12-23T18:14:19.583Z,4.03
2022-12-23T18:16:46.815Z,3.17
2022-12-23T18:19:18.697Z,3.58
2022-12-23T18:21:46.684Z,2.42
2022-12-23T18:24:14.028Z,3.50
2022-12-23T18:26:41.195Z,2.25
2022-12-23T18:29:08.271Z,1.20
2022-12-23T18:31:36.144Z,1.63
2022-12-23T18:34:03.817Z,3.22
2022-12-23T18:36:33.688Z,1.75
2022-12-23T18:39:00.915Z,2.63
2022-12-23T18:41:28.223Z,3.13
2022-12-23T18:43:55.583Z,3.20
2022-12-23T18:46:23.032Z,1.55
2022-12-23T18:48:51.423Z,4.15
2022-12-23T18:51:20.946Z,2.08
2022-12-23T18:53:48.626Z,1.80
2022-12-23T18:56:19.096Z,2.78
2022-12-23T18:58:46.445Z,2.75
2022-12-23T19:01:15.647Z,1.30
2022-12-23T19:03:43.469Z,5.30
2022-12-23T19:06:13.713Z,6.95
2022-12-23T19:08:41.646Z,6.88
2022-12-23T19:11:12.605Z,5.72
2022-12-23T19:13:40.283Z,4.13
2022-12-23T19:16:07.491Z,5.82
2022-12-23T19:18:34.598Z,7.20
2022-12-23T19:21:04.170Z,4.55
2022-12-23T19:23:31.507Z,8.15
2022-12-23T19:25:58.581Z,6.28
2022-12-23T19:28:25.753Z,4.90
2022-12-23T19:30:52.913Z,4.68
2022-12-23T19:33:19.996Z,3.67
2022-12-23T19:35:47.070Z,5.30
2022-12-23T19:38:14.178Z,3.97
2022-12-23T19:40:41.270Z,3.97
2022-12-23T19:43:08.322Z,3.53
2022-12-23T19:45:35.359Z,5.32
2022-12-23T19:48:02.439Z,4.38
2022-12-23T19:50:29.547Z,2.88
2022-12-23T19:52:57.326Z,3.67
2022-12-23T19:55:24.473Z,2.88
2022-12-23T19:57:52.130Z,2.47
2022-12-23T20:00:19.360Z,2.00
2022-12-23T20:02:46.529Z,3.00
2022-12-23T20:05:13.627Z,2.08
2022-12-23T20:07:40.701Z,2.38
2022-12-23T20:10:08.322Z,2.90
2022-12-23T20:12:35.430Z,1.15
2022-12-23T20:15:02.644Z,1.85
2022-12-23T20:17:29.761Z,1.30
2022-12-23T20:19:56.949Z,2.40
2022-12-23T20:22:24.005Z,1.38
2022-12-23T20:24:51.101Z,1.80
2022-12-23T20:27:22.687Z,5.17
2022-12-23T20:29:54.258Z,2.30
2022-12-23T20:32:21.312Z,2.17
2022-12-23T20:34:49.905Z,4.53
2022-12-23T20:37:17.466Z,7.93
2022-12-23T20:39:44.537Z,3.83
2022-12-23T20:42:11.601Z,6.00
2022-12-23T20:44:38.649Z,3.47
2022-12-23T20:47:06.535Z,3.47
2022-12-23T20:49:33.748Z,6.60
2022-12-23T20:52:01.184Z,6.63
2022-12-23T20:54:33.399Z,4.15
2022-12-23T20:57:01.849Z,6.70
2022-12-23T20:59:29.008Z,7.75
2022-12-23T21:01:59.004Z,4.53
2022-12-23T21:04:26.728Z,5.50
2022-12-23T21:06:53.961Z,5.88
2022-12-23T21:09:21.115Z,3.42
2022-12-23T21:11:48.533Z,4.50
2022-12-23T21:14:15.869Z,4.70
2022-12-23T21:16:43.203Z,3.67
2022-12-23T21:19:16.469Z,4.50
2022-12-23T21:21:44.262Z,4.57
2022-12-23T21:24:11.587Z,5.75
2022-12-23T21:26:38.877Z,3.78
2022-12-23T21:29:08.410Z,5.78
2022-12-23T21:31:38.347Z,5.35
2022-12-23T21:34:06.393Z,5.47
2022-12-23T21:36:37.025Z,7.38
2022-12-23T21:39:05.509Z,6.47
2022-12-23T21:41:36.517Z,6.25
2022-12-23T21:44:03.989Z,3.42
2022-12-23T21:46:31.434Z,2.77
2022-12-23T21:48:59.611Z,5.47
2022-12-23T21:51:39.543Z,4.70
2022-12-23T21:54:08.430Z,1.90
2022-12-23T21:56:35.617Z,2.90
2022-12-23T21:59:08.687Z,3.45
2022-12-23T22:01:35.943Z,6.20
2022-12-23T22:04:03.207Z,4.30
2022-12-23T22:06:33.607Z,3.13
2022-12-23T22:09:00.726Z,7.40
2022-12-23T22:11:30.270Z,4.65
2022-12-23T22:13:58.955Z,3.23
2022-12-23T22:16:28.101Z,2.35
2022-12-23T22:18:56.820Z,9.60
2022-12-23T22:21:25.882Z,5.78
2022-12-23T22:23:55.293Z,6.68
2022-12-23T22:26:26.168Z,4.57
2022-12-23T22:28:58.826Z,7.77
2022-12-23T22:31:36.909Z,6.32
2022-12-23T22:34:05.269Z,7.75
2022-12-23T22:36:32.839Z,8.98
2022-12-23T22:39:01.365Z,10.32
2022-12-23T22:41:29.403Z,7.57
2022-12-23T22:43:57.502Z,12.63
2022-12-23T22:46:25.434Z,7.00
2022-12-23T22:48:53.455Z,5.60
2022-12-23T22:51:23.733Z,7.93
2022-12-23T22:53:51.214Z,10.35
2022-12-23T22:56:19.527Z,8.60
2022-12-23T22:58:47.094Z,8.95
2022-12-23T23:01:26.777Z,10.32
2022-12-23T23:03:58.756Z,6.68
2022-12-23T23:06:27.678Z,7.43
2022-12-23T23:08:55.138Z,5.47
2022-12-23T23:11:23.082Z,4.70
2022-12-23T23:13:50.253Z,9.75
2022-12-23T23:16:17.552Z,9.27
2022-12-23T23:18:45.151Z,8.70
2022-12-23T23:21:13.704Z,9.30
2022-12-23T23:23:40.879Z,8.90
2022-12-23T23:26:10.155Z,8.63
2022-12-23T23:28:39.190Z,6.65
2022-12-23T23:31:40.616Z,7.38
2022-12-23T23:33:54.531Z,18.48
2022-12-23T23:36:21.647Z,9.60
2022-12-23T23:38:48.776Z,7.43
2022-12-23T23:41:20.678Z,8.30
2022-12-23T23:43:49.823Z,5.57
2022-12-23T23:46:16.974Z,4.40
2022-12-23T23:48:44.090Z,6.72
2022-12-23T23:51:12.400Z,4.80
2022-12-23T23:53:39.612Z,5.45
2022-12-23T23:56:08.040Z,4.43
2022-12-23T23:58:35.931Z,4.88
